createdAt,value
2023-12-23T00:00:27.624Z,785.20
2023-12-23T00:03:03.089Z,820.90
2023-12-23T00:05:36.720Z,811.53
2023-12-23T00:08:10.296Z,822.63
2023-12-23T00:10:44.033Z,789.70
2023-12-23T00:13:17.569Z,767.22
2023-12-23T00:15:51.183Z,784.50
2023-12-23T00:18:26.563Z,789.50
2023-12-23T00:21:00.469Z,794.75
2023-12-23T00:23:34.203Z,803.97
2023-12-23T00:26:09.001Z,782.92
2023-12-23T00:28:42.694Z,773.92
2023-12-23T00:31:17.116Z,1725.68
2023-12-23T00:33:52.149Z,709.75
2023-12-23T00:36:34.284Z,1023.40
2023-12-23T00:39:08.046Z,770.60
2023-12-23T00:41:42.396Z,757.50
2023-12-23T00:44:16.004Z,756.72
2023-12-23T00:46:49.694Z,771.67
2023-12-23T00:49:24.801Z,777.50
2023-12-23T00:51:58.423Z,774.13
2023-12-23T00:54:32.077Z,752.05
2023-12-23T00:57:05.963Z,828.53
2023-12-23T00:59:40.631Z,794.88
2023-12-23T01:02:16.065Z,784.78
2023-12-23T01:04:51.129Z,750.35
2023-12-23T01:07:24.760Z,560.22
2023-12-23T01:09:58.968Z,683.13
2023-12-23T01:12:32.566Z,720.15
2023-12-23T01:15:07.381Z,700.30
2023-12-23T01:17:40.935Z,705.97
2023-12-23T01:20:16.191Z,593.35
2023-12-23T01:22:49.795Z,683.38
2023-12-23T01:25:24.178Z,546.90
2023-12-23T01:28:01.558Z,688.75
2023-12-23T01:30:35.314Z,688.30
2023-12-23T01:33:09.266Z,650.47
2023-12-23T01:35:46.021Z,728.92
2023-12-23T01:38:19.785Z,700.90
2023-12-23T01:40:53.481Z,651.38
2023-12-23T01:43:27.149Z,735.40
2023-12-23T01:46:02.667Z,737.85
2023-12-23T01:48:39.775Z,683.38
2023-12-23T01:51:16.186Z,741.30
2023-12-23T01:53:49.896Z,743.75
2023-12-23T01:56:23.514Z,683.60
2023-12-23T01:58:57.343Z,754.60
2023-12-23T02:01:33.873Z,743.17
2023-12-23T02:04:08.077Z,526.33
2023-12-23T02:06:43.240Z,462.58
2023-12-23T02:09:16.874Z,486.83
2023-12-23T02:11:57.982Z,474.67
2023-12-23T02:14:44.869Z,497.65
2023-12-23T02:17:18.942Z,443.55
2023-12-23T02:19:52.584Z,555.15
2023-12-23T02:22:27.792Z,521.67
2023-12-23T02:25:01.577Z,436.02
2023-12-23T02:27:41.175Z,688.28
2023-12-23T02:30:16.985Z,609.60
2023-12-23T02:32:52.054Z,567.40
2023-12-23T02:35:26.336Z,658.20
2023-12-23T02:38:01.413Z,712.78
2023-12-23T02:40:35.149Z,538.08
2023-12-23T02:43:08.834Z,737.45
2023-12-23T02:45:42.430Z,594.90
2023-12-23T02:48:16.650Z,530.63
2023-12-23T02:50:50.305Z,487.13
2023-12-23T02:53:25.338Z,634.33
2023-12-23T02:55:59.063Z,517.90
2023-12-23T02:58:32.606Z,687.30
2023-12-23T03:01:08.578Z,509.38
2023-12-23T03:03:43.413Z,741.97
2023-12-23T03:06:17.422Z,599.45
2023-12-23T03:08:52.384Z,730.83
2023-12-23T03:11:26.589Z,461.15
2023-12-23T03:14:01.360Z,913.50
2023-12-23T03:16:37.041Z,766.55
2023-12-23T03:19:11.962Z,699.20
2023-12-23T03:21:45.881Z,721.72
2023-12-23T03:24:20.934Z,564.80
2023-12-23T03:26:54.488Z,552.47
2023-12-23T03:29:28.002Z,819.30
2023-12-23T03:32:01.741Z,716.50
2023-12-23T03:34:36.466Z,744.70
2023-12-23T03:37:10.770Z,834.30
2023-12-23T03:39:45.697Z,781.97
2023-12-23T03:42:19.202Z,763.95
2023-12-23T03:44:52.765Z,856.17
2023-12-23T03:47:26.436Z,794.63
2023-12-23T03:50:00.721Z,815.65
2023-12-23T03:52:34.281Z,834.17
2023-12-23T03:55:11.317Z,804.95
2023-12-23T03:57:46.003Z,774.72
2023-12-23T04:00:21.105Z,757.80
2023-12-23T04:02:54.762Z,750.50
2023-12-23T04:05:28.337Z,706.45
2023-12-23T04:08:01.966Z,698.00
2023-12-23T04:10:37.063Z,605.30
2023-12-23T04:13:10.578Z,663.08
2023-12-23T04:15:44.201Z,687.85
2023-12-23T04:18:17.801Z,649.45
2023-12-23T04:20:51.609Z,689.67
2023-12-23T04:23:25.546Z,629.47
2023-12-23T04:26:00.568Z,627.42
2023-12-23T04:28:34.361Z,571.15
2023-12-23T04:31:08.566Z,671.42
2023-12-23T04:33:42.292Z,738.88
2023-12-23T04:36:16.236Z,703.28
2023-12-23T04:38:50.306Z,756.47
2023-12-23T04:41:25.337Z,713.83
2023-12-23T04:43:59.130Z,833.83
2023-12-23T04:46:32.979Z,705.30
2023-12-23T04:49:06.582Z,530.28
2023-12-23T04:51:41.083Z,598.95
2023-12-23T04:54:15.217Z,598.70
2023-12-23T04:56:50.221Z,649.90
2023-12-23T04:59:23.909Z,611.33
2023-12-23T05:01:57.779Z,629.47
2023-12-23T05:04:31.310Z,693.75
2023-12-23T05:07:05.047Z,649.50
2023-12-23T05:09:39.354Z,622.63
2023-12-23T05:12:14.314Z,631.03
2023-12-23T05:14:47.937Z,657.33
2023-12-23T05:17:22.661Z,663.88
2023-12-23T05:19:57.809Z,517.45
2023-12-23T05:22:31.485Z,583.17
2023-12-23T05:25:05.725Z,606.10
2023-12-23T05:27:40.697Z,505.90
2023-12-23T05:30:15.368Z,604.40
2023-12-23T05:32:49.163Z,634.78
2023-12-23T05:35:22.977Z,545.22
2023-12-23T05:37:56.995Z,572.80
2023-12-23T05:40:30.557Z,568.55
2023-12-23T05:43:05.801Z,525.13
2023-12-23T05:45:39.338Z,611.90
2023-12-23T05:48:13.145Z,607.22
2023-12-23T05:50:47.242Z,461.55
2023-12-23T05:53:20.823Z,516.97
2023-12-23T05:55:54.455Z,542.88
2023-12-23T05:58:29.382Z,684.80
2023-12-23T06:01:04.311Z,559.63
2023-12-23T06:03:38.251Z,710.35
2023-12-23T06:06:12.211Z,752.08
2023-12-23T06:08:46.470Z,645.10
2023-12-23T06:11:20.252Z,718.78
2023-12-23T06:13:55.551Z,917.17
2023-12-23T06:16:28.147Z,780.05
2023-12-23T06:19:01.808Z,762.22
2023-12-23T06:21:36.294Z,897.88
2023-12-23T06:24:09.992Z,773.22
2023-12-23T06:26:45.966Z,804.83
2023-12-23T06:29:21.688Z,780.42
2023-12-23T06:31:56.222Z,752.25
2023-12-23T06:34:30.122Z,772.50
2023-12-23T06:37:04.123Z,784.10
2023-12-23T06:39:38.186Z,687.92
2023-12-23T06:42:12.136Z,729.30
2023-12-23T06:44:47.517Z,1119.53
2023-12-23T06:47:21.217Z,731.13
2023-12-23T06:50:03.076Z,814.72
2023-12-23T06:52:38.062Z,907.17
2023-12-23T06:55:12.616Z,888.38
2023-12-23T06:57:46.943Z,736.88
2023-12-23T07:00:28.076Z,793.13
2023-12-23T07:05:52.417Z,1311.80
2023-12-23T07:08:26.209Z,613.00
2023-12-23T07:11:00.070Z,670.15
2023-12-23T07:13:34.154Z,727.13
2023-12-23T07:16:10.051Z,798.42
2023-12-23T07:18:43.729Z,641.33
2023-12-23T07:21:35.959Z,691.17
2023-12-23T07:24:09.560Z,672.75
2023-12-23T07:26:43.120Z,630.53
2023-12-23T07:29:16.763Z,593.53
2023-12-23T07:31:51.848Z,636.80
2023-12-23T07:34:27.549Z,704.38
2023-12-23T07:37:07.202Z,807.15
2023-12-23T07:39:41.050Z,784.40
2023-12-23T07:42:15.171Z,864.15
2023-12-23T07:44:48.979Z,865.60
2023-12-23T07:47:24.054Z,896.88
2023-12-23T07:49:58.006Z,834.42
2023-12-23T07:52:34.597Z,1001.63
2023-12-23T07:55:10.390Z,900.75
2023-12-23T07:57:46.665Z,971.58
2023-12-23T08:00:21.355Z,929.65
2023-12-23T08:02:56.360Z,867.00
2023-12-23T08:05:32.896Z,924.45
2023-12-23T08:08:08.412Z,877.47
2023-12-23T08:10:42.368Z,957.17
2023-12-23T08:13:15.920Z,830.85
2023-12-23T08:15:50.084Z,843.33
2023-12-23T08:18:25.380Z,915.55
2023-12-23T08:20:59.924Z,829.85
2023-12-23T08:23:34.025Z,843.72
2023-12-23T08:26:08.214Z,814.58
2023-12-23T08:28:42.906Z,1061.28
2023-12-23T08:31:17.979Z,884.10
2023-12-23T08:33:53.458Z,797.65
2023-12-23T08:36:28.220Z,868.63
2023-12-23T08:39:01.866Z,825.83
2023-12-23T08:41:36.541Z,822.53
2023-12-23T08:44:10.973Z,836.53
2023-12-23T08:46:44.909Z,848.00
2023-12-23T08:49:20.285Z,831.78
2023-12-23T08:51:53.890Z,859.85
2023-12-23T08:54:29.877Z,865.85
2023-12-23T08:57:12.701Z,889.67
2023-12-23T08:59:48.128Z,887.45
2023-12-23T09:02:28.220Z,866.50
2023-12-23T09:05:14.363Z,987.72
2023-12-23T09:07:53.126Z,869.33
2023-12-23T09:10:32.045Z,899.45
2023-12-23T09:13:06.418Z,854.67
2023-12-23T09:15:40.987Z,918.38
2023-12-23T09:18:15.959Z,903.83
2023-12-23T09:20:53.504Z,884.13
2023-12-23T09:23:27.992Z,932.78
2023-12-23T09:26:01.863Z,974.28
2023-12-23T09:28:35.911Z,945.20
2023-12-23T09:31:09.922Z,875.45
2023-12-23T09:33:43.833Z,927.25
2023-12-23T09:36:19.146Z,929.35
2023-12-23T09:38:52.784Z,896.65
2023-12-23T09:41:26.933Z,971.95
2023-12-23T09:44:00.843Z,932.65
2023-12-23T09:46:40.002Z,924.65
2023-12-23T09:49:13.918Z,946.63
2023-12-23T09:51:51.863Z,894.60
2023-12-23T09:54:28.746Z,872.33
2023-12-23T09:57:02.824Z,918.58
2023-12-23T09:59:36.992Z,905.63
2023-12-23T10:02:10.772Z,898.75
2023-12-23T10:04:44.763Z,874.72
2023-12-23T10:07:20.173Z,926.83
2023-12-23T10:09:53.824Z,945.28
2023-12-23T10:12:28.026Z,912.20
2023-12-23T10:15:01.719Z,911.08
2023-12-23T10:17:35.823Z,892.38
2023-12-23T10:20:12.990Z,891.13
2023-12-23T10:22:50.602Z,909.42
2023-12-23T10:25:25.310Z,921.15
2023-12-23T10:28:02.307Z,928.78
2023-12-23T10:30:39.705Z,881.88
2023-12-23T10:33:16.572Z,905.25
2023-12-23T10:35:52.784Z,888.33
2023-12-23T10:38:32.059Z,913.70
2023-12-23T10:41:14.553Z,905.03
2023-12-23T10:43:54.474Z,902.72
2023-12-23T10:46:32.376Z,851.00
2023-12-23T10:49:17.227Z,880.08
2023-12-23T10:51:55.879Z,892.65
2023-12-23T10:54:31.432Z,1005.88
2023-12-23T10:57:12.531Z,857.28
2023-12-23T10:59:51.879Z,831.55
2023-12-23T11:02:47.058Z,828.67
2023-12-23T11:05:24.560Z,844.63
2023-12-23T11:08:10.478Z,833.28
2023-12-23T11:11:02.908Z,818.70
2023-12-23T11:13:36.610Z,842.03
2023-12-23T11:16:11.978Z,855.53
2023-12-23T11:18:49.093Z,841.28
2023-12-23T11:21:30.727Z,841.45
2023-12-23T11:24:08.736Z,827.00
2023-12-23T11:26:47.329Z,833.40
2023-12-23T11:29:22.569Z,841.97
2023-12-23T11:32:14.056Z,824.33
2023-12-23T11:34:49.601Z,918.97
2023-12-23T11:37:24.599Z,888.33
2023-12-23T11:40:07.351Z,830.83
2023-12-23T11:42:43.410Z,850.08
2023-12-23T11:45:18.626Z,839.08
2023-12-23T11:47:52.840Z,928.55
2023-12-23T11:50:27.950Z,857.28
2023-12-23T11:53:02.714Z,825.90
2023-12-23T11:55:37.243Z,837.10
2023-12-23T11:58:13.033Z,814.35
2023-12-23T12:00:51.912Z,832.22
2023-12-23T12:03:26.368Z,841.28
2023-12-23T12:06:01.225Z,834.97
2023-12-23T12:08:37.654Z,925.42
2023-12-23T12:11:13.313Z,836.15
2023-12-23T12:13:49.799Z,832.00
2023-12-23T12:16:25.751Z,835.40
2023-12-23T12:19:04.410Z,849.70
2023-12-23T12:21:38.533Z,833.33
2023-12-23T12:24:12.520Z,807.40
2023-12-23T12:26:47.772Z,854.40
2023-12-23T12:29:23.564Z,947.83
2023-12-23T12:31:58.485Z,849.08
2023-12-23T12:34:32.449Z,853.25
2023-12-23T12:37:06.248Z,837.53
2023-12-23T12:39:39.864Z,886.17
2023-12-23T12:42:13.856Z,860.15
2023-12-23T12:44:50.251Z,849.60
2023-12-23T12:47:27.543Z,849.60
2023-12-23T12:50:06.806Z,840.53
2023-12-23T12:52:44.321Z,850.95
2023-12-23T12:55:25.536Z,834.22
2023-12-23T12:58:01.805Z,870.60
2023-12-23T13:00:36.829Z,798.70
2023-12-23T13:03:11.459Z,801.22
2023-12-23T13:05:45.959Z,889.00
2023-12-23T13:08:20.438Z,877.35
2023-12-23T13:10:54.491Z,866.50
2023-12-23T13:13:28.372Z,849.50
2023-12-23T13:16:13.934Z,829.70
2023-12-23T13:18:53.743Z,823.55
2023-12-23T13:21:36.611Z,867.53
2023-12-23T13:24:10.338Z,847.47
2023-12-23T13:26:44.407Z,793.40
2023-12-23T13:29:22.193Z,806.90
2023-12-23T13:31:57.776Z,681.83
2023-12-23T13:34:32.153Z,727.03
2023-12-23T13:37:07.749Z,745.40
2023-12-23T13:39:42.384Z,635.92
2023-12-23T13:42:16.830Z,636.42
2023-12-23T13:44:51.360Z,576.38
2023-12-23T13:47:26.868Z,525.28
2023-12-23T13:50:04.147Z,510.35
2023-12-23T13:52:40.848Z,547.05
2023-12-23T13:55:15.423Z,532.00
2023-12-23T13:57:48.993Z,603.55
2023-12-23T14:00:23.364Z,595.30
2023-12-23T14:02:58.696Z,568.85
2023-12-23T14:05:35.756Z,627.30
2023-12-23T14:08:12.956Z,616.45
2023-12-23T14:10:49.690Z,584.47
2023-12-23T14:13:24.322Z,569.03
2023-12-23T14:15:58.419Z,606.83
2023-12-23T14:18:36.851Z,562.80
2023-12-23T14:21:13.716Z,562.33
2023-12-23T14:23:48.657Z,530.58
2023-12-23T14:26:22.253Z,559.53
2023-12-23T14:28:59.699Z,551.20
2023-12-23T14:31:35.047Z,539.33
2023-12-23T14:34:11.077Z,569.60
2023-12-23T14:36:49.712Z,563.22
2023-12-23T14:39:36.551Z,582.60
2023-12-23T14:42:10.637Z,566.28
2023-12-23T14:44:44.243Z,607.28
2023-12-23T14:47:19.452Z,503.35
2023-12-23T14:49:54.642Z,538.25
2023-12-23T14:52:28.460Z,544.80
2023-12-23T14:55:02.220Z,460.30
2023-12-23T14:57:35.897Z,370.63
2023-12-23T15:00:11.212Z,448.63
2023-12-23T15:02:51.352Z,464.83
2023-12-23T15:05:26.847Z,511.17
2023-12-23T15:08:03.677Z,595.45
2023-12-23T15:10:38.224Z,588.75
2023-12-23T15:13:20.656Z,563.63
2023-12-23T15:15:57.186Z,554.30
2023-12-23T15:18:31.335Z,642.35
2023-12-23T15:21:12.225Z,600.50
2023-12-23T15:23:46.172Z,643.42
2023-12-23T15:26:19.813Z,716.50
2023-12-23T15:28:53.931Z,719.58
2023-12-23T15:31:27.718Z,782.97
2023-12-23T15:34:01.402Z,777.08
2023-12-23T15:36:36.625Z,770.58
2023-12-23T15:39:10.672Z,792.40
2023-12-23T15:41:44.900Z,803.67
2023-12-23T15:44:18.758Z,791.85
2023-12-23T15:46:52.498Z,837.88
2023-12-23T15:49:26.343Z,812.17
2023-12-23T15:52:04.512Z,818.95
2023-12-23T15:55:04.106Z,827.78
2023-12-23T15:57:46.672Z,844.33
2023-12-23T16:00:28.725Z,843.33
2023-12-23T16:03:05.611Z,878.20
2023-12-23T16:05:41.454Z,851.55
2023-12-23T16:08:17.787Z,883.78
2023-12-23T16:10:53.397Z,841.45
2023-12-23T16:13:27.347Z,866.60
2023-12-23T16:16:04.040Z,865.05
2023-12-23T16:28:29.352Z,784.97
2023-12-23T16:31:05.197Z,783.65
2023-12-23T16:33:40.469Z,850.78
2023-12-23T16:36:15.662Z,865.90
2023-12-23T16:39:15.665Z,840.63
2023-12-23T16:41:51.317Z,836.97
2023-12-23T16:44:29.909Z,856.78
2023-12-23T16:47:03.762Z,874.97
2023-12-23T16:50:07.040Z,845.53
2023-12-23T16:52:42.075Z,877.03
2023-12-23T16:55:15.803Z,849.75
2023-12-23T16:57:49.521Z,895.78
2023-12-23T17:00:25.614Z,903.10
2023-12-23T17:02:59.307Z,910.88
2023-12-23T17:05:57.946Z,968.90
2023-12-23T17:08:31.962Z,856.55
2023-12-23T17:11:06.276Z,941.00
2023-12-23T17:13:40.096Z,913.55
2023-12-23T17:16:15.322Z,960.08
2023-12-23T17:18:49.311Z,971.33
2023-12-23T17:21:24.574Z,949.70
2023-12-23T17:23:58.270Z,983.47
2023-12-23T17:26:32.073Z,1000.85
2023-12-23T17:29:06.330Z,994.22
2023-12-23T17:31:41.487Z,982.70
2023-12-23T17:34:15.944Z,985.92
2023-12-23T17:36:49.627Z,984.75
2023-12-23T17:39:32.466Z,1002.75
2023-12-23T17:42:11.338Z,954.13
2023-12-23T17:44:57.000Z,1005.17
2023-12-23T17:47:52.881Z,951.30
2023-12-23T17:51:24.639Z,891.28
2023-12-23T17:54:22.297Z,865.22
2023-12-23T17:57:01.079Z,891.97
2023-12-23T17:59:35.026Z,972.03
2023-12-23T18:02:08.681Z,1018.72
2023-12-23T18:04:43.775Z,1005.95
2023-12-23T18:07:17.460Z,1048.63
2023-12-23T18:09:52.023Z,1055.78
2023-12-23T18:12:25.953Z,1077.90
2023-12-23T18:14:59.613Z,1115.10
2023-12-23T18:17:33.330Z,1163.47
2023-12-23T18:20:09.846Z,1090.82
2023-12-23T18:22:44.264Z,1111.05
2023-12-23T18:25:17.926Z,1090.80
2023-12-23T18:27:52.862Z,1128.22
2023-12-23T18:30:26.649Z,1095.63
2023-12-23T18:33:00.676Z,1047.40
2023-12-23T18:35:36.070Z,1078.53
2023-12-23T18:38:11.953Z,1076.60
2023-12-23T18:40:46.610Z,1069.47
2023-12-23T18:43:20.333Z,1077.72
2023-12-23T18:45:54.275Z,1062.60
2023-12-23T18:48:29.382Z,1042.07
2023-12-23T18:51:04.760Z,1101.18
2023-12-23T18:53:38.651Z,1148.95
2023-12-23T18:56:15.047Z,1143.68
2023-12-23T18:58:50.460Z,1111.85
2023-12-23T19:01:24.297Z,1151.55
2023-12-23T19:03:58.146Z,1099.75
2023-12-23T19:06:34.118Z,1102.03
2023-12-23T19:09:07.872Z,1166.15
2023-12-23T19:11:42.806Z,1143.40
2023-12-23T19:14:16.714Z,1126.50
2023-12-23T19:16:50.632Z,1147.38
2023-12-23T19:19:24.548Z,1193.38
2023-12-23T19:21:59.741Z,1290.07
2023-12-23T19:24:36.493Z,1314.55
2023-12-23T19:27:10.319Z,1157.32
2023-12-23T19:29:45.381Z,1155.20
2023-12-23T19:32:19.565Z,1162.05
2023-12-23T19:34:53.322Z,1213.55
2023-12-23T19:37:28.408Z,1146.82
2023-12-23T19:40:09.130Z,1170.30
2023-12-23T19:42:43.978Z,991.22
2023-12-23T19:45:18.865Z,1145.90
2023-12-23T19:47:52.837Z,1123.18
2023-12-23T19:50:27.186Z,1121.75
2023-12-23T19:53:03.957Z,1132.78
2023-12-23T19:55:40.472Z,1078.78
2023-12-23T19:58:14.629Z,1093.30
2023-12-23T20:00:49.938Z,1145.53
2023-12-23T20:03:23.646Z,1138.68
2023-12-23T20:05:58.783Z,1120.43
2023-12-23T20:08:33.972Z,1110.50
2023-12-23T20:11:07.815Z,1137.97
2023-12-23T20:13:41.509Z,1102.53
2023-12-23T20:16:24.201Z,1312.50
2023-12-23T20:18:59.185Z,1071.50
2023-12-23T20:21:33.290Z,1080.82
2023-12-23T20:24:11.733Z,1122.30
2023-12-23T20:27:22.373Z,1076.72
2023-12-23T20:30:00.500Z,943.22
2023-12-23T20:32:57.068Z,1045.28
2023-12-23T20:35:31.484Z,973.28
2023-12-23T20:38:05.649Z,992.05
2023-12-23T20:40:45.098Z,974.78
2023-12-23T20:43:18.921Z,989.75
2023-12-23T20:45:58.190Z,1043.72
2023-12-23T20:48:41.390Z,975.92
2023-12-23T20:51:45.986Z,954.42
2023-12-23T20:54:22.668Z,1032.40
2023-12-23T20:57:00.416Z,985.05
2023-12-23T20:59:50.847Z,1038.95
2023-12-23T21:02:30.785Z,927.00
2023-12-23T21:05:06.633Z,939.35
2023-12-23T21:07:41.176Z,932.22
2023-12-23T21:10:17.715Z,1023.78
2023-12-23T21:12:53.770Z,1011.03
2023-12-23T21:15:28.027Z,1015.97
2023-12-23T21:18:02.378Z,1046.18
2023-12-23T21:20:36.384Z,1066.30
2023-12-23T21:23:10.386Z,1054.55
2023-12-23T21:25:44.204Z,1048.10
2023-12-23T21:28:24.672Z,1043.40
2023-12-23T21:31:01.329Z,1101.10
2023-12-23T21:33:35.323Z,1065.47
2023-12-23T21:36:12.109Z,1046.53
2023-12-23T21:38:47.795Z,1062.28
2023-12-23T21:41:22.735Z,1024.55
2023-12-23T21:43:58.173Z,1036.55
2023-12-23T21:46:31.917Z,1073.13
2023-12-23T21:49:08.504Z,1038.90
2023-12-23T21:51:42.720Z,1037.57
2023-12-23T21:54:16.726Z,1062.25
2023-12-23T22:26:03.671Z,909.58
2023-12-23T22:28:42.144Z,943.50
2023-12-23T22:31:16.014Z,1021.65
2023-12-23T22:33:50.053Z,1046.47
2023-12-23T22:36:24.018Z,1149.45
2023-12-23T22:39:00.947Z,1212.63
2023-12-23T22:41:36.694Z,1098.43
2023-12-23T22:44:12.810Z,1156.57
2023-12-23T22:46:52.365Z,1108.80
2023-12-23T22:49:26.203Z,1268.57
2023-12-23T22:52:00.288Z,1305.65
2023-12-23T23:02:14.650Z,935.30
2023-12-23T23:16:19.060Z,903.55
2023-12-23T23:29:43.687Z,913.45
2023-12-23T23:33:31.057Z,927.75
2023-12-23T23:36:21.258Z,928.53
2023-12-23T23:38:57.988Z,1045.20
2023-12-23T23:45:08.343Z,1062.13
2023-12-23T23:45:48.836Z,917.50
2023-12-23T23:47:43.103Z,1076.28
2023-12-23T23:50:24.789Z,1189.85
2023-12-23T23:53:22.492Z,1131.37
2023-12-23T23:56:26.275Z,1029.75
2023-12-23T23:59:24.309Z,1126.50
